createdAt,value
2022-10-31T00:04:13.508Z,99470.88
2022-10-31T00:09:20.567Z,99466.20
2022-10-31T00:14:48.058Z,99467.53
2022-10-31T00:19:55.112Z,99468.38
2022-10-31T00:25:02.354Z,99477.02
2022-10-31T00:30:11.245Z,99480.06
2022-10-31T00:38:05.333Z,99478.93
2022-10-31T00:48:17.527Z,99479.90
2022-10-31T00:53:22.983Z,99488.05
2022-10-31T00:58:29.800Z,99489.89
2022-10-31T01:03:39.702Z,99486.64
2022-10-31T01:21:29.399Z,99479.13
2022-10-31T01:26:36.816Z,99479.91
2022-10-31T01:31:43.930Z,99481.69
2022-10-31T01:36:52.610Z,99474.67
2022-10-31T01:42:00.097Z,99470.78
2022-10-31T01:47:13.794Z,99467.24
2022-10-31T01:52:26.001Z,99464.66
2022-10-31T01:57:34.428Z,99460.29
2022-10-31T02:02:41.672Z,99461.34
2022-10-31T02:07:54.433Z,99462.21
2022-10-31T02:13:03.749Z,99463.13
2022-10-31T02:18:11.421Z,99465.14
2022-10-31T02:24:11.157Z,99469.75
2022-10-31T02:29:42.384Z,99468.88
2022-10-31T02:34:59.423Z,99474.86
2022-10-31T02:40:13.511Z,99475.98
2022-10-31T02:45:28.076Z,99483.70
2022-10-31T02:59:09.529Z,99488.33
2022-10-31T03:04:32.910Z,99492.67
2022-10-31T03:09:45.436Z,99490.30
2022-10-31T03:14:55.118Z,99488.28
2022-10-31T03:20:01.714Z,99492.08
2022-10-31T03:25:07.921Z,99492.45
2022-10-31T03:30:12.699Z,99494.73
2022-10-31T03:35:19.509Z,99498.34
2022-10-31T03:40:27.225Z,99497.23
2022-10-31T03:45:32.776Z,99500.17
2022-10-31T03:50:44.173Z,99503.73
2022-10-31T03:55:53.541Z,99504.70
2022-10-31T04:00:58.653Z,99504.32
2022-10-31T04:06:06.527Z,99504.65
2022-10-31T04:11:13.936Z,99503.70
2022-10-31T04:16:18.656Z,99504.07
2022-10-31T04:21:29.406Z,99505.54
2022-10-31T04:26:33.032Z,99509.15
2022-10-31T04:31:36.591Z,99511.02
2022-10-31T04:36:39.998Z,99512.70
2022-10-31T04:41:43.661Z,99509.34
2022-10-31T04:46:47.482Z,99504.80
2022-10-31T04:51:51.148Z,99508.99
2022-10-31T04:56:54.678Z,99512.19
2022-10-31T05:01:58.279Z,99512.45
2022-10-31T05:07:01.814Z,99511.45
2022-10-31T05:12:05.838Z,99515.14
2022-10-31T05:17:09.592Z,99520.95
2022-10-31T05:22:13.365Z,99522.85
2022-10-31T05:27:16.935Z,99524.45
2022-10-31T05:32:20.610Z,99530.77
2022-10-31T05:37:24.329Z,99533.84
2022-10-31T05:42:27.803Z,99540.54
2022-10-31T05:47:31.572Z,99540.79
2022-10-31T05:52:35.000Z,99544.63
2022-10-31T05:57:38.752Z,99549.73
2022-10-31T06:02:42.171Z,99559.41
2022-10-31T06:07:45.826Z,99558.26
2022-10-31T06:12:49.564Z,99554.94
2022-10-31T06:23:25.480Z,99574.04
2022-10-31T06:28:28.986Z,99581.20
2022-10-31T06:33:32.634Z,99588.23
2022-10-31T06:38:36.539Z,99588.88
2022-10-31T06:43:40.080Z,99592.00
2022-10-31T06:48:43.699Z,99596.02
2022-10-31T06:53:54.160Z,99597.34
2022-10-31T06:58:57.926Z,99601.05
2022-10-31T07:04:01.573Z,99603.79
2022-10-31T07:09:05.701Z,99608.32
2022-10-31T07:14:09.479Z,99610.23
2022-10-31T07:19:13.340Z,99608.98
2022-10-31T07:24:15.832Z,99609.20
2022-10-31T07:29:19.262Z,99612.65
2022-10-31T07:34:23.327Z,99614.14
2022-10-31T07:39:27.023Z,99611.75
2022-10-31T07:44:30.517Z,99612.09
2022-10-31T07:49:33.955Z,99608.30
2022-10-31T07:54:37.673Z,99611.84
2022-10-31T07:59:41.289Z,99609.40
2022-10-31T08:04:44.737Z,99609.61
2022-10-31T08:09:48.448Z,99609.84
2022-10-31T08:14:52.396Z,99612.50
2022-10-31T08:19:56.155Z,99612.77
2022-10-31T08:24:59.626Z,99615.73
2022-10-31T08:30:03.084Z,99614.39
2022-10-31T08:35:07.980Z,99613.11
2022-10-31T08:40:13.496Z,99612.29
2022-10-31T08:45:17.208Z,99616.21
2022-10-31T08:50:20.731Z,99614.29
2022-10-31T08:55:24.610Z,99614.56
2022-10-31T09:00:28.296Z,99608.19
2022-10-31T09:05:32.888Z,99605.31
2022-10-31T09:10:37.706Z,99606.52
2022-10-31T09:21:41.589Z,99611.86
2022-10-31T09:26:45.279Z,99610.09
2022-10-31T09:31:48.858Z,99611.80
2022-10-31T09:36:53.783Z,99609.55
2022-10-31T09:42:16.301Z,99611.48
2022-10-31T09:47:30.699Z,99612.89
2022-10-31T09:52:37.594Z,99614.43
2022-10-31T09:57:42.857Z,99619.34
2022-10-31T10:02:51.720Z,99616.48
2022-10-31T10:08:02.506Z,99620.14
2022-10-31T10:13:21.878Z,99621.77
2022-10-31T10:18:34.631Z,99620.88
2022-10-31T10:23:56.420Z,99622.39
2022-10-31T10:29:09.433Z,99617.13
2022-10-31T10:34:19.595Z,99614.33
2022-10-31T10:39:27.007Z,99607.38
2022-10-31T10:44:48.820Z,99608.30
2022-10-31T10:49:53.294Z,99604.38
2022-10-31T10:55:05.206Z,99605.25
2022-10-31T11:00:19.717Z,99601.34
2022-10-31T11:05:27.033Z,99598.40
2022-10-31T11:10:30.611Z,99597.00
2022-10-31T11:21:27.842Z,99592.52
2022-10-31T11:26:36.511Z,99590.82
2022-10-31T11:31:44.471Z,99587.88
2022-10-31T11:36:52.210Z,99579.31
2022-10-31T11:42:08.619Z,99578.81
2022-10-31T11:47:19.772Z,99572.55
2022-10-31T11:52:31.715Z,99566.88
2022-10-31T11:57:47.857Z,99567.14
2022-10-31T12:03:07.912Z,99567.02
2022-10-31T12:08:16.389Z,99565.66
2022-10-31T12:13:35.681Z,99562.25
2022-10-31T12:18:55.262Z,99557.52
2022-10-31T12:24:16.228Z,99550.30
2022-10-31T12:29:38.580Z,99549.95
2022-10-31T12:46:59.107Z,99541.30
2022-10-31T12:52:18.649Z,99538.44
2022-10-31T12:57:30.816Z,99531.15
2022-10-31T13:02:44.934Z,99533.10
2022-10-31T13:07:57.874Z,99530.63
2022-10-31T13:13:14.473Z,99528.73
2022-10-31T13:18:30.129Z,99526.77
2022-10-31T13:23:55.017Z,99533.96
2022-10-31T13:29:08.066Z,99531.70
2022-10-31T13:34:29.547Z,99530.58
2022-10-31T13:39:52.759Z,99529.04
2022-10-31T13:45:13.682Z,99529.52
2022-10-31T13:50:26.506Z,99526.25
2022-10-31T13:55:44.744Z,99526.00
2022-10-31T14:01:05.548Z,99527.23
2022-10-31T14:06:14.226Z,99524.22
2022-10-31T14:11:32.999Z,99520.66
2022-10-31T14:16:45.732Z,99519.20
2022-10-31T14:21:53.439Z,99515.17
2022-10-31T14:27:02.264Z,99509.30
2022-10-31T14:32:21.815Z,99516.17
2022-10-31T14:38:00.716Z,99512.09
2022-10-31T14:43:31.059Z,99507.56
2022-10-31T14:48:54.445Z,99510.98
2022-10-31T14:54:03.680Z,99511.52
2022-10-31T14:59:17.664Z,99503.89
2022-10-31T15:04:28.012Z,99504.65
2022-10-31T15:09:37.923Z,99505.16
2022-10-31T15:14:44.822Z,99512.33
2022-10-31T15:19:52.488Z,99511.45
2022-10-31T15:24:59.819Z,99513.14
2022-10-31T15:30:18.449Z,99512.65
2022-10-31T15:35:27.734Z,99510.92
2022-10-31T15:40:35.004Z,99512.11
2022-10-31T15:45:44.000Z,99514.24
2022-10-31T15:50:54.878Z,99518.83
2022-10-31T15:56:04.495Z,99515.53
2022-10-31T16:01:25.408Z,99518.46
2022-10-31T16:06:33.812Z,99520.06
2022-10-31T16:11:42.403Z,99523.35
2022-10-31T16:16:53.613Z,99525.48
2022-10-31T16:22:09.068Z,99527.12
2022-10-31T16:27:24.966Z,99527.90
2022-10-31T16:32:35.864Z,99533.20
2022-10-31T16:37:43.839Z,99536.86
2022-10-31T17:24:45.947Z,99544.01
2022-10-31T17:29:52.880Z,99536.95
2022-10-31T17:35:00.294Z,99535.47
2022-10-31T17:40:08.994Z,99538.64
2022-10-31T17:45:16.219Z,99539.91
2022-10-31T17:50:25.300Z,99537.73
2022-10-31T17:55:37.126Z,99540.54
2022-10-31T18:00:47.417Z,99535.27
2022-10-31T18:05:59.308Z,99543.70
2022-10-31T18:11:12.301Z,99540.58
2022-10-31T18:16:20.435Z,99540.00
2022-10-31T18:21:27.743Z,99542.50
2022-10-31T18:26:34.999Z,99537.48
2022-10-31T18:31:42.489Z,99535.33
2022-10-31T18:36:50.007Z,99536.30
2022-10-31T18:41:57.358Z,99529.10
2022-10-31T18:47:04.608Z,99526.01
2022-10-31T18:52:12.171Z,99526.99
2022-10-31T18:57:19.507Z,99525.72
2022-10-31T19:02:26.616Z,99526.59
2022-10-31T19:07:34.090Z,99524.14
2022-10-31T19:12:41.382Z,99524.73
2022-10-31T19:17:48.402Z,99522.64
2022-10-31T19:22:55.500Z,99517.16
2022-10-31T19:28:02.662Z,99512.69
2022-10-31T19:33:10.044Z,99507.19
2022-10-31T19:38:17.127Z,99510.89
2022-10-31T19:48:32.291Z,99517.27
2022-10-31T19:53:40.328Z,99513.83
2022-10-31T19:58:48.045Z,99511.11
2022-10-31T20:03:55.511Z,99513.66
2022-10-31T20:09:04.761Z,99507.50
2022-10-31T20:14:14.594Z,99508.17
2022-10-31T20:19:22.335Z,99496.00
2022-10-31T20:24:32.815Z,99494.80
2022-10-31T20:29:39.850Z,99492.06
2022-10-31T20:34:45.316Z,99499.89
2022-10-31T20:39:55.682Z,99503.56
2022-10-31T20:45:04.331Z,99501.73
2022-10-31T20:50:12.205Z,99505.77
2022-10-31T20:55:19.167Z,99506.09
2022-10-31T21:00:26.285Z,99502.10
2022-10-31T21:05:31.747Z,99499.60
2022-10-31T21:10:40.777Z,99499.18
2022-10-31T21:15:48.442Z,99494.04
2022-10-31T21:20:56.016Z,99494.48
2022-10-31T21:26:08.031Z,99489.42
2022-10-31T21:31:17.325Z,99491.14
2022-10-31T21:36:26.623Z,99486.48
2022-10-31T21:41:33.875Z,99486.34
2022-10-31T21:46:41.008Z,99486.31
2022-10-31T21:51:47.820Z,99481.14
2022-10-31T21:56:55.237Z,99470.61
2022-10-31T22:02:02.754Z,99466.90
2022-10-31T22:07:09.805Z,99465.89
2022-10-31T22:12:18.674Z,99459.37
2022-10-31T22:17:28.196Z,99456.90
2022-10-31T22:22:35.204Z,99453.98
2022-10-31T22:27:42.284Z,99446.48
2022-10-31T22:32:50.005Z,99442.59
2022-10-31T22:37:56.932Z,99442.23
2022-10-31T22:43:02.839Z,99438.96
2022-10-31T22:48:10.383Z,99436.30
2022-10-31T22:53:17.415Z,99432.02
2022-10-31T22:58:24.355Z,99433.67
2022-10-31T23:03:31.263Z,99429.77
2022-10-31T23:08:39.848Z,99426.16
2022-10-31T23:14:14.404Z,99420.37
2022-10-31T23:19:23.933Z,99412.65
2022-10-31T23:24:33.856Z,99411.21
2022-10-31T23:29:47.083Z,99405.72
2022-10-31T23:34:55.603Z,99402.76
2022-10-31T23:40:02.742Z,99402.35
2022-10-31T23:45:11.317Z,99392.05
2022-10-31T23:50:19.032Z,99389.40
2022-10-31T23:55:26.267Z,99378.85
